Time;durP1;ratioP1;P1;durP2;ratioP2;P2;SDS_P1;SDS_P2;PMS_P1;PMS_P2;Temp;Humidity;BMP_temperature;BMP_pressure;BME280_temperature;BME280_humidity;BME280_pressure;Samples;Min_cycle;Max_cycle;Signal;HPM_P1;HPM_P2
2022/04/26 03:37:29;;;;;;;14.90;8.33;;;5.90;99.90;;;;;;5031216;28;19924;-88
2022/04/26 03:39:56;;;;;;;21.80;9.18;;;5.90;99.90;;;;;;5031306;28;20625;-87
2022/04/26 03:42:21;;;;;;;21.75;8.68;;;5.90;99.90;;;;;;5031080;28;20045;-87
2022/04/26 03:44:47;;;;;;;20.40;9.32;;;6.10;99.90;;;;;;5032413;28;20052;-87
2022/04/26 03:47:13;;;;;;;19.15;9.23;;;5.90;99.90;;;;;;5031071;28;20045;-89
2022/04/26 03:49:41;;;;;;;19.35;8.95;;;5.90;99.90;;;;;;5034906;28;20029;-89
2022/04/26 03:52:15;;;;;;;16.52;8.73;;;5.90;99.90;;;;;;5029516;28;20476;-89
2022/04/26 03:54:41;;;;;;;16.65;8.63;;;5.90;99.90;;;;;;5017757;28;20083;-90
2022/04/26 03:57:10;;;;;;;22.80;9.35;;;5.80;99.90;;;;;;5025514;28;20565;-89
2022/04/26 03:59:39;;;;;;;16.40;8.25;;;5.70;99.90;;;;;;5028796;28;20140;-89
2022/04/26 04:02:04;;;;;;;15.75;8.48;;;6.10;99.90;;;;;;5012464;28;20139;-89
2022/04/26 04:04:30;;;;;;;17.20;8.70;;;5.80;99.90;;;;;;5012548;28;20060;-89
2022/04/26 04:06:56;;;;;;;20.38;8.73;;;5.60;99.90;;;;;;5017337;28;20037;-90
2022/04/26 04:09:21;;;;;;;21.15;8.80;;;5.50;99.90;;;;;;5017289;28;20075;-89
2022/04/26 04:11:50;;;;;;;20.75;7.97;;;6.30;99.90;;;;;;5016565;28;20045;-91
2022/04/26 04:14:16;;;;;;;17.88;8.65;;;6.30;99.90;;;;;;5032744;28;20555;-91
2022/04/26 04:16:41;;;;;;;18.15;9.05;;;5.80;99.90;;;;;;5035037;28;20134;-89
2022/04/26 04:19:19;;;;;;;17.02;7.72;;;5.80;99.90;;;;;;5034247;28;20063;-89
2022/04/26 04:21:46;;;;;;;16.40;7.63;;;5.80;99.90;;;;;;5034046;28;20041;-88
2022/04/26 04:24:12;;;;;;;13.18;7.30;;;5.80;99.90;;;;;;5017633;28;20055;-90
2022/04/26 04:26:38;;;;;;;20.20;8.52;;;5.80;99.90;;;;;;5033637;28;20048;-89
2022/04/26 04:29:08;;;;;;;17.38;7.25;;;5.80;99.90;;;;;;5034834;28;20041;-90
2022/04/26 04:31:34;;;;;;;14.07;8.15;;;5.90;99.90;;;;;;5017916;28;20041;-90
2022/04/26 04:34:03;;;;;;;17.23;7.63;;;6.10;99.90;;;;;;5017905;28;20040;-90
2022/04/26 04:36:29;;;;;;;18.13;7.10;;;6.30;99.90;;;;;;5032866;28;20037;-90
2022/04/26 04:39:02;;;;;;;14.27;6.75;;;5.70;99.90;;;;;;5034197;28;20033;-90
2022/04/26 04:41:28;;;;;;;12.75;6.40;;;5.80;99.90;;;;;;5018408;28;20107;-90
2022/04/26 04:43:54;;;;;;;17.23;6.63;;;6.50;99.90;;;;;;5016566;28;20041;-89
2022/04/26 04:46:19;;;;;;;17.20;7.30;;;5.80;99.90;;;;;;5033067;28;20041;-91
2022/04/26 04:48:45;;;;;;;16.45;6.75;;;6.00;99.90;;;;;;5016898;28;20125;-89
2022/04/26 04:51:11;;;;;;;17.30;6.90;;;6.40;99.90;;;;;;5033605;28;20519;-90
2022/04/26 04:53:37;;;;;;;17.67;7.53;;;5.90;99.90;;;;;;5016777;28;20041;-89
2022/04/26 04:56:03;;;;;;;14.10;7.65;;;5.90;99.90;;;;;;5000981;28;20515;-90
2022/04/26 04:58:40;;;;;;;14.02;7.57;;;5.90;99.90;;;;;;5017839;28;20041;-90
2022/04/26 05:01:18;;;;;;;16.38;6.68;;;6.20;99.90;;;;;;5016829;28;20033;-90
2022/04/26 05:03:44;;;;;;;13.77;7.10;;;6.60;99.90;;;;;;5000143;28;20045;-90
2022/04/26 05:06:14;;;;;;;14.52;6.68;;;6.10;99.90;;;;;;5015088;28;20045;-90
2022/04/26 05:08:39;;;;;;;15.32;7.43;;;6.20;99.90;;;;;;5032857;28;20124;-90
2022/04/26 05:11:05;;;;;;;12.80;7.82;;;6.20;99.90;;;;;;5032648;28;20065;-90
2022/04/26 05:13:31;;;;;;;15.93;7.03;;;6.40;99.90;;;;;;5015966;28;20037;-89
2022/04/26 05:15:57;;;;;;;14.73;6.60;;;6.30;99.90;;;;;;5030320;28;20044;-89
2022/04/26 05:18:23;;;;;;;16.33;6.72;;;6.40;99.90;;;;;;5030249;28;20095;-88
2022/04/26 05:20:51;;;;;;;15.25;6.93;;;6.80;99.90;;;;;;5031026;28;20041;-90
2022/04/26 05:26:00;;;;;;;15.43;7.15;;;7.00;99.90;;;;;;5028238;28;20045;-90
2022/04/26 05:28:26;;;;;;;14.18;6.20;;;6.70;99.90;;;;;;5029739;28;20045;-88
2022/04/26 05:30:53;;;;;;;14.55;6.90;;;6.80;99.90;;;;;;5014546;28;20411;-89
2022/04/26 05:33:18;;;;;;;14.77;6.35;;;7.00;99.90;;;;;;5047386;28;20041;-88
2022/04/26 05:35:44;;;;;;;14.98;6.97;;;7.10;99.90;;;;;;5029457;28;20060;-89
2022/04/26 05:38:09;;;;;;;14.55;6.80;;;7.20;99.90;;;;;;5013455;28;20029;-88
2022/04/26 05:40:35;;;;;;;15.57;6.75;;;7.80;99.90;;;;;;5030279;28;20034;-89
2022/04/26 05:43:01;;;;;;;14.88;7.20;;;7.40;99.90;;;;;;5012368;28;20049;-88
2022/04/26 05:45:27;;;;;;;12.63;6.65;;;7.40;99.90;;;;;;5011655;28;20052;-88
2022/04/26 05:47:54;;;;;;;14.25;6.43;;;7.50;99.90;;;;;;5025629;28;20029;-87
2022/04/26 05:50:20;;;;;;;13.93;6.93;;;7.60;99.90;;;;;;5032281;28;20069;-88
2022/04/26 05:52:45;;;;;;;12.65;6.85;;;7.60;99.90;;;;;;5032727;28;20065;-88
2022/04/26 05:55:11;;;;;;;18.52;6.70;;;7.70;99.90;;;;;;5032673;28;20095;-89
2022/04/26 05:57:42;;;;;;;17.08;6.53;;;8.10;99.90;;;;;;5032816;28;20037;-87
2022/04/26 06:00:12;;;;;;;10.02;6.40;;;8.30;99.90;;;;;;5048925;28;20045;-89
2022/04/26 06:02:37;;;;;;;13.80;6.13;;;7.90;99.90;;;;;;5032444;28;20041;-88
2022/04/26 06:05:03;;;;;;;15.30;6.35;;;8.00;99.90;;;;;;5032439;28;20645;-88
2022/04/26 06:07:29;;;;;;;12.27;5.18;;;8.10;99.90;;;;;;5032381;28;20037;-89
2022/04/26 06:09:55;;;;;;;11.23;5.38;;;8.20;99.90;;;;;;5032619;28;20043;-90
2022/04/26 06:12:26;;;;;;;13.98;5.03;;;8.20;99.90;;;;;;5032100;28;20241;-89
2022/04/26 06:14:59;;;;;;;10.18;4.40;;;8.30;99.90;;;;;;5033335;28;20050;-89
2022/04/26 06:17:25;;;;;;;11.75;4.97;;;8.40;99.90;;;;;;5030425;28;20033;-88
2022/04/26 06:19:51;;;;;;;14.63;4.75;;;8.40;99.90;;;;;;5030229;28;20029;-89
2022/04/26 06:22:17;;;;;;;12.15;4.97;;;8.60;99.90;;;;;;5030396;28;20089;-88
2022/04/26 06:24:43;;;;;;;9.82;4.57;;;8.70;99.90;;;;;;5029952;28;20048;-88
2022/04/26 06:27:08;;;;;;;9.23;4.70;;;8.70;99.90;;;;;;5029713;28;20037;-88
2022/04/26 06:29:34;;;;;;;13.23;4.93;;;8.70;99.90;;;;;;5028596;28;20037;-87
2022/04/26 06:32:01;;;;;;;17.58;5.05;;;8.60;99.90;;;;;;5029624;28;20033;-87
2022/04/26 06:34:26;;;;;;;13.70;5.03;;;8.60;99.90;;;;;;5023075;28;20042;-86
2022/04/26 06:36:52;;;;;;;11.35;5.10;;;8.60;99.90;;;;;;5027798;28;20033;-88
2022/04/26 06:39:18;;;;;;;10.20;4.35;;;8.60;99.90;;;;;;5030179;28;20136;-88
2022/04/26 06:41:43;;;;;;;11.82;4.22;;;8.60;99.90;;;;;;5030774;28;20033;-87
2022/04/26 06:44:09;;;;;;;10.63;4.57;;;8.60;99.90;;;;;;5031449;28;20033;-87
2022/04/26 06:46:37;;;;;;;8.05;4.55;;;8.60;99.90;;;;;;5022131;28;20529;-87
2022/04/26 06:49:03;;;;;;;12.05;4.68;;;8.50;99.90;;;;;;5024389;28;20038;-89
2022/04/26 06:51:33;;;;;;;11.32;4.43;;;9.00;99.90;;;;;;5029385;28;20460;-87
2022/04/26 06:53:58;;;;;;;11.35;4.25;;;8.50;99.90;;;;;;5030095;28;20087;-87
2022/04/26 06:56:24;;;;;;;13.65;4.93;;;8.50;99.90;;;;;;5031093;28;20042;-87
2022/04/26 06:58:50;;;;;;;10.65;4.13;;;8.60;99.90;;;;;;5021984;28;20671;-86
2022/04/26 07:01:15;;;;;;;10.45;3.92;;;8.90;99.90;;;;;;5030021;28;20040;-87
2022/04/26 07:03:41;;;;;;;10.80;4.22;;;9.00;99.90;;;;;;5030957;28;20176;-88
2022/04/26 07:06:07;;;;;;;9.60;3.83;;;9.10;99.90;;;;;;5026973;28;20040;-88
2022/04/26 07:08:32;;;;;;;12.23;3.80;;;9.30;99.90;;;;;;5015773;28;20129;-89
2022/04/26 07:10:58;;;;;;;7.97;3.78;;;9.60;99.90;;;;;;4995224;28;20038;-86
2022/04/26 07:13:23;;;;;;;8.10;3.15;;;9.60;99.90;;;;;;5019551;28;20046;-87
2022/04/26 07:15:49;;;;;;;9.15;3.38;;;9.70;99.90;;;;;;5009707;28;20029;-87
2022/04/26 07:18:15;;;;;;;13.10;3.47;;;9.80;99.90;;;;;;5027306;28;20025;-87
2022/04/26 07:20:44;;;;;;;8.00;3.63;;;9.70;99.90;;;;;;5009526;28;20029;-86
2022/04/26 07:23:10;;;;;;;10.60;4.38;;;9.60;99.90;;;;;;5024489;28;20414;-87
2022/04/26 07:25:35;;;;;;;10.88;3.75;;;9.50;99.90;;;;;;5024357;28;20041;-86
2022/04/26 07:28:01;;;;;;;7.20;3.60;;;9.40;99.90;;;;;;5026001;28;20064;-86
2022/04/26 07:30:34;;;;;;;10.65;3.85;;;9.30;99.90;;;;;;5024101;28;22102;-86
2022/04/26 07:35:44;;;;;;;8.00;3.83;;;9.40;99.90;;;;;;5022565;28;20047;-86
2022/04/26 07:38:10;;;;;;;8.60;3.70;;;9.50;99.90;;;;;;5025583;28;20037;-86
2022/04/26 07:40:36;;;;;;;10.75;3.97;;;9.50;99.90;;;;;;5025941;28;20404;-86
2022/04/26 07:43:03;;;;;;;9.30;4.05;;;9.40;99.90;;;;;;5026702;28;20038;-86
2022/04/26 07:45:30;;;;;;;15.68;4.38;;;9.30;99.90;;;;;;5025433;28;20041;-87
2022/04/26 07:47:56;;;;;;;8.00;3.90;;;9.40;99.90;;;;;;5025673;28;20041;-85
2022/04/26 07:50:21;;;;;;;10.95;3.80;;;9.30;99.90;;;;;;5036512;28;20053;-86
2022/04/26 07:52:47;;;;;;;6.93;3.90;;;9.30;99.90;;;;;;5022845;28;20068;-86
2022/04/26 07:55:25;;;;;;;12.68;7.82;;;9.30;99.90;;;;;;5025804;28;20534;-85
2022/04/26 07:57:59;;;;;;;8.80;4.22;;;9.50;99.90;;;;;;5023723;28;20034;-85
2022/04/26 08:00:27;;;;;;;12.40;4.32;;;9.80;99.90;;;;;;5022903;28;20508;-85
2022/04/26 08:02:55;;;;;;;11.88;4.20;;;9.90;99.90;;;;;;5008277;28;20037;-86
2022/04/26 08:05:25;;;;;;;8.75;4.18;;;9.80;99.90;;;;;;5025678;28;20514;-85
2022/04/26 08:07:56;;;;;;;6.50;3.45;;;9.90;99.90;;;;;;5027584;28;20041;-85
2022/04/26 08:10:34;;;;;;;9.40;4.07;;;10.50;99.90;;;;;;5027818;28;20075;-85
2022/04/26 08:13:05;;;;;;;8.18;3.78;;;10.60;99.90;;;;;;5039328;28;20042;-85
2022/04/26 08:15:40;;;;;;;7.20;3.70;;;10.70;99.90;;;;;;5026495;28;20399;-84
2022/04/26 08:18:29;;;;;;;7.50;3.95;;;10.80;99.90;;;;;;5026674;28;20044;-85
2022/04/26 08:21:02;;;;;;;10.77;3.80;;;10.80;99.90;;;;;;5024409;28;20527;-84
2022/04/26 08:29:26;;;;;;;;;;;11.50;99.90;;;;;;5033967;28;20208;-85
2022/04/26 08:32:14;;;;;;;7.80;2.92;;;11.50;99.90;;;;;;5014596;28;20379;-86
2022/04/26 08:35:22;;;;;;;9.25;3.20;;;11.30;99.90;;;;;;5028998;28;20093;-85
2022/04/26 08:37:48;;;;;;;9.50;3.47;;;11.30;99.90;;;;;;5030396;28;20046;-86
2022/04/26 08:40:32;;;;;;;5.57;2.88;;;11.50;99.90;;;;;;5030345;28;20055;-85
2022/04/26 08:42:59;;;;;;;7.15;3.20;;;11.60;99.90;;;;;;5030166;28;20034;-85
2022/04/26 08:45:43;;;;;;;7.97;3.20;;;12.10;99.90;;;;;;5013467;28;20034;-85
2022/04/26 08:51:03;;;;;;;7.40;2.97;;;11.00;99.90;;;;;;5032893;28;20033;-85
2022/04/26 08:53:33;;;;;;;9.10;3.45;;;10.80;99.90;;;;;;5033888;28;20360;-86
2022/04/26 08:56:06;;;;;;;7.50;3.03;;;10.40;99.90;;;;;;5033105;28;20040;-86
2022/04/26 08:58:43;;;;;;;9.00;3.15;;;10.30;99.90;;;;;;5016835;28;20380;-86
2022/04/26 09:01:18;;;;;;;6.97;3.10;;;10.90;99.90;;;;;;5033843;28;20041;-87
2022/04/26 09:04:03;;;;;;;7.70;3.20;;;10.40;99.90;;;;;;5033771;28;20414;-85
2022/04/26 09:06:32;;;;;;;5.72;3.08;;;10.40;99.90;;;;;;5017418;28;20048;-86
2022/04/26 09:09:09;;;;;;;8.40;3.30;;;10.50;99.90;;;;;;5035016;28;20407;-85
2022/04/26 09:11:35;;;;;;;4.85;2.72;;;10.70;99.90;;;;;;5035157;28;20128;-86
2022/04/26 09:14:03;;;;;;;8.43;3.25;;;10.70;99.90;;;;;;5033462;28;20042;-87
2022/04/26 09:16:29;;;;;;;6.28;3.33;;;10.80;99.90;;;;;;5016928;28;20045;-87
2022/04/26 09:19:08;;;;;;;6.75;3.05;;;11.70;99.90;;;;;;5015767;28;20422;-87
2022/04/26 09:21:54;;;;;;;6.00;3.15;;;11.40;99.90;;;;;;5017413;28;20039;-86
2022/04/26 09:24:20;;;;;;;7.22;2.85;;;11.50;99.90;;;;;;5033646;28;20045;-88
2022/04/26 09:26:45;;;;;;;4.50;2.42;;;11.60;99.90;;;;;;5016943;28;20561;-88
2022/04/26 09:29:19;;;;;;;6.70;2.97;;;12.30;99.90;;;;;;5017410;28;20499;-88
2022/04/26 09:31:44;;;;;;;7.45;3.00;;;12.70;99.90;;;;;;5016381;28;20033;-88
2022/04/26 09:34:14;;;;;;;6.35;2.80;;;12.80;99.90;;;;;;5030407;28;20030;-88
2022/04/26 09:36:50;;;;;;;5.05;2.60;;;13.10;99.90;;;;;;5030729;28;20061;-87
2022/04/26 09:39:21;;;;;;;6.53;2.97;;;12.70;99.90;;;;;;5032694;28;20530;-88
2022/04/26 09:41:52;;;;;;;9.80;3.00;;;12.60;99.90;;;;;;5030123;28;20079;-87
2022/04/26 09:44:30;;;;;;;6.95;2.83;;;12.60;99.90;;;;;;5013383;28;20059;-86
2022/04/26 09:46:56;;;;;;;8.50;3.00;;;13.10;99.90;;;;;;5028260;28;20049;-87
2022/04/26 09:49:23;;;;;;;3.65;2.35;;;13.40;99.90;;;;;;5028905;28;20049;-87
2022/04/26 09:51:59;;;;;;;6.35;2.30;;;13.60;99.90;;;;;;5024732;28;20037;-88
2022/04/26 09:54:25;;;;;;;7.47;2.50;;;13.80;99.90;;;;;;5032132;28;20103;-88
2022/04/26 09:56:51;;;;;;;7.95;2.80;;;13.90;99.90;;;;;;5026479;28;20056;-88
2022/04/26 09:59:27;;;;;;;7.95;2.50;;;13.90;99.90;;;;;;5030982;28;20415;-88
2022/04/26 10:01:58;;;;;;;6.90;2.97;;;13.80;99.90;;;;;;5029855;28;20029;-86
2022/04/26 10:04:26;;;;;;;6.97;2.40;;;14.00;99.90;;;;;;5029217;28;20458;-88
2022/04/26 10:06:59;;;;;;;6.18;2.70;;;14.00;99.90;;;;;;5030245;28;20125;-87
2022/04/26 10:09:25;;;;;;;6.15;2.75;;;14.20;99.90;;;;;;5025687;28;20054;-88
2022/04/26 10:11:57;;;;;;;8.45;2.83;;;13.60;99.90;;;;;;5011508;28;20037;-87
2022/04/26 10:14:23;;;;;;;8.27;2.90;;;13.20;99.90;;;;;;5027565;28;20045;-87
2022/04/26 10:16:50;;;;;;;6.78;2.70;;;13.20;99.90;;;;;;5027967;28;20099;-87
2022/04/26 10:19:16;;;;;;;9.98;3.20;;;13.40;99.90;;;;;;5026796;28;20061;-85
2022/04/26 10:21:46;;;;;;;6.78;2.90;;;13.20;99.90;;;;;;5029490;28;20045;-85
2022/04/26 10:24:13;;;;;;;7.78;3.03;;;12.90;99.90;;;;;;5030061;28;20099;-85
2022/04/26 10:26:40;;;;;;;7.50;2.75;;;12.90;99.90;;;;;;5014763;28;20044;-85
2022/04/26 10:29:09;;;;;;;6.40;2.83;;;13.00;99.90;;;;;;5031636;28;20090;-85
2022/04/26 10:31:44;;;;;;;7.50;2.80;;;13.50;99.90;;;;;;5032145;28;20102;-85
2022/04/26 10:34:29;;;;;;;7.07;2.70;;;13.90;99.90;;;;;;5031873;28;20052;-84
2022/04/26 10:36:56;;;;;;;7.47;2.80;;;13.80;99.90;;;;;;5032460;28;20491;-84
2022/04/26 10:39:40;;;;;;;8.32;3.10;;;13.50;99.90;;;;;;5035181;28;20045;-84
2022/04/26 10:42:12;;;;;;;7.53;3.00;;;13.20;99.90;;;;;;5037708;28;20044;-83
2022/04/26 10:44:48;;;;;;;6.65;2.90;;;13.40;99.90;;;;;;5036485;28;20555;-84
2022/04/26 10:47:18;;;;;;;6.75;3.00;;;13.30;99.90;;;;;;5037518;28;20034;-83
2022/04/26 10:49:45;;;;;;;11.25;3.15;;;12.90;99.90;;;;;;5033637;28;20048;-83
2022/04/26 10:52:22;;;;;;;4.38;2.75;;;12.80;99.90;;;;;;5034678;28;20048;-83
2022/04/26 10:57:28;;;;;;;8.20;2.92;;;13.50;99.90;;;;;;5020699;28;20042;-83
2022/04/26 11:00:07;;;;;;;8.68;2.97;;;13.20;99.90;;;;;;5018861;28;20496;-80
2022/04/26 11:02:39;;;;;;;5.65;2.75;;;13.00;99.90;;;;;;5019804;28;20048;-83
2022/04/26 11:05:23;;;;;;;5.47;2.40;;;12.90;99.90;;;;;;5024799;28;20052;-82
2022/04/26 11:07:49;;;;;;;8.35;2.65;;;12.70;99.90;;;;;;5027442;28;20034;-82
2022/04/26 11:10:20;;;;;;;5.82;2.83;;;12.50;99.90;;;;;;5022289;28;20518;-82
2022/04/26 11:12:46;;;;;;;9.48;2.80;;;12.60;99.90;;;;;;5023311;28;20049;-82
2022/04/26 11:15:20;;;;;;;6.18;3.10;;;13.30;99.90;;;;;;5025946;28;20089;-82
2022/04/26 11:17:49;;;;;;;4.95;2.90;;;13.60;99.90;;;;;;5024321;28;20065;-82
2022/04/26 11:20:24;;;;;;;4.68;2.95;;;14.00;99.90;;;;;;5025810;28;20014;-82
2022/04/26 11:22:57;;;;;;;5.18;2.70;;;14.10;99.90;;;;;;5028417;28;20033;-81
2022/04/26 11:28:12;;;;;;;6.97;3.17;;;14.30;99.70;;;;;;5044032;28;20150;-81
2022/04/26 11:30:43;;;;;;;6.05;2.70;;;14.40;99.50;;;;;;5025649;28;20038;-82
2022/04/26 11:33:20;;;;;;;6.35;2.92;;;14.50;99.90;;;;;;5040388;28;20148;-82
2022/04/26 11:35:57;;;;;;;7.65;2.75;;;14.70;98.30;;;;;;5039086;28;20040;-82
2022/04/26 11:38:23;;;;;;;6.90;2.88;;;14.80;99.50;;;;;;5037977;28;20037;-82
2022/04/26 11:40:54;;;;;;;6.53;2.60;;;15.20;99.90;;;;;;5033960;28;20038;-82
2022/04/26 11:43:28;;;;;;;8.63;2.60;;;15.80;99.90;;;;;;5032108;28;20060;-82
2022/04/26 11:45:55;;;;;;;4.85;2.72;;;15.60;98.80;;;;;;5040564;28;20065;-82
2022/04/26 11:48:29;;;;;;;7.85;2.97;;;16.00;98.90;;;;;;5042590;28;20042;-82
2022/04/26 11:50:55;;;;;;;5.13;2.25;;;16.50;98.80;;;;;;5041064;28;20037;-81
2022/04/26 11:53:23;;;;;;;4.85;2.38;;;16.10;98.80;;;;;;5042019;28;20095;-82
2022/04/26 11:55:53;;;;;;;5.60;2.78;;;15.70;97.20;;;;;;5026647;28;20523;-81
2022/04/26 11:58:20;;;;;;;7.10;2.67;;;15.60;96.20;;;;;;5042354;28;20034;-82
2022/04/26 12:01:02;;;;;;;4.68;2.40;;;15.80;96.00;;;;;;5040995;28;20053;-81
2022/04/26 12:03:29;;;;;;;5.50;2.47;;;14.90;95.00;;;;;;5043817;28;20041;-80
2022/04/26 12:06:04;;;;;;;4.43;2.53;;;14.60;96.30;;;;;;5043385;28;20529;-81
2022/04/26 12:08:43;;;;;;;5.40;2.58;;;14.70;95.90;;;;;;5047216;28;20705;-81
2022/04/26 12:11:20;;;;;;;6.97;2.40;;;15.20;96.10;;;;;;5032139;28;20055;-82
2022/04/26 12:14:06;;;;;;;6.40;2.55;;;15.10;95.30;;;;;;5047858;28;20038;-80
2022/04/26 12:16:42;;;;;;;5.10;2.35;;;14.80;95.00;;;;;;5025740;28;20047;-80
2022/04/26 12:19:09;;;;;;;6.30;2.47;;;15.40;96.60;;;;;;5042305;28;20033;-80
2022/04/26 12:21:56;;;;;;;5.10;2.78;;;16.00;96.90;;;;;;5036997;28;20026;-80
2022/04/26 12:24:25;;;;;;;6.68;2.70;;;15.50;95.00;;;;;;5041793;28;20056;-82
2022/04/26 12:26:59;;;;;;;5.60;2.53;;;14.80;92.60;;;;;;5046745;28;20041;-81
2022/04/26 12:29:35;;;;;;;6.07;2.42;;;14.70;93.70;;;;;;5040725;28;20075;-80
2022/04/26 12:32:05;;;;;;;6.57;2.55;;;14.60;94.80;;;;;;5031733;28;20045;-81
2022/04/26 12:34:30;;;;;;;5.78;2.75;;;15.50;96.30;;;;;;5050262;28;20060;-80
2022/04/26 12:36:58;;;;;;;5.45;2.67;;;15.10;95.50;;;;;;5050188;28;20037;-80
2022/04/26 12:39:40;;;;;;;7.03;2.53;;;14.70;94.90;;;;;;5050166;28;20033;-80
2022/04/26 12:42:07;;;;;;;8.27;2.90;;;14.20;93.90;;;;;;5045456;28;20091;-80
2022/04/26 12:44:33;;;;;;;12.38;2.78;;;14.90;95.50;;;;;;5077841;28;20041;-80
2022/04/26 12:52:46;;;;;;;4.07;2.47;;;15.60;91.80;;;;;;5045816;28;19976;-82
2022/04/26 12:55:13;;;;;;;4.47;2.50;;;15.00;93.30;;;;;;5047262;28;20048;-82
2022/04/26 12:57:52;;;;;;;5.35;2.72;;;14.60;93.50;;;;;;5041704;28;20042;-82
2022/04/26 13:00:20;;;;;;;5.03;2.45;;;14.40;93.90;;;;;;5043404;28;20113;-80
2022/04/26 13:02:51;;;;;;;5.95;2.65;;;14.50;94.10;;;;;;5036740;28;20097;-80
2022/04/26 13:05:17;;;;;;;5.80;2.85;;;14.50;92.50;;;;;;5045783;28;20038;-80
2022/04/26 13:07:46;;;;;;;5.50;2.75;;;14.90;93.30;;;;;;5048982;28;20124;-81
2022/04/26 13:10:15;;;;;;;4.93;2.75;;;15.30;93.10;;;;;;5033502;28;20102;-81
2022/04/26 13:12:41;;;;;;;7.55;2.67;;;15.10;92.90;;;;;;5052766;28;20045;-81
2022/04/26 13:15:08;;;;;;;8.18;2.95;;;15.00;93.40;;;;;;5050328;28;20053;-81
2022/04/26 13:17:37;;;;;;;6.10;2.83;;;15.80;94.30;;;;;;5050309;28;20041;-81
2022/04/26 13:20:07;;;;;;;6.32;2.13;;;16.30;93.90;;;;;;5048290;28;20040;-81
2022/04/26 13:22:34;;;;;;;6.35;2.70;;;16.90;93.90;;;;;;5042705;28;20025;-81
2022/04/26 13:25:01;;;;;;;5.25;2.40;;;16.90;93.50;;;;;;5042998;28;20158;-81
2022/04/26 13:27:27;;;;;;;3.95;2.40;;;16.40;92.70;;;;;;5042149;28;20042;-81
2022/04/26 13:29:52;;;;;;;4.75;2.38;;;16.50;91.70;;;;;;5045317;28;20097;-81
2022/04/26 13:32:19;;;;;;;5.05;2.42;;;16.40;91.80;;;;;;5049065;28;20045;-82
2022/04/26 13:34:45;;;;;;;4.47;2.38;;;16.10;91.70;;;;;;5044311;28;20083;-82
2022/04/26 13:37:12;;;;;;;6.78;2.50;;;16.00;90.80;;;;;;5043843;28;20037;-81
2022/04/26 13:39:39;;;;;;;6.93;3.15;;;15.60;92.00;;;;;;5044578;28;20044;-82
2022/04/26 13:42:05;;;;;;;3.90;2.35;;;15.30;92.40;;;;;;5046330;28;20060;-84
2022/04/26 13:44:32;;;;;;;4.68;2.83;;;14.80;92.40;;;;;;5046005;28;20060;-82
2022/04/26 13:46:58;;;;;;;5.75;2.72;;;15.10;93.40;;;;;;5027855;28;20083;-82
2022/04/26 13:49:24;;;;;;;5.22;2.63;;;15.10;93.30;;;;;;5044939;28;20041;-82
2022/04/26 13:51:50;;;;;;;6.35;2.63;;;15.40;92.70;;;;;;5044163;28;20049;-83
2022/04/26 13:54:16;;;;;;;4.18;2.60;;;15.40;92.60;;;;;;5041000;28;20077;-83
2022/04/26 13:56:42;;;;;;;6.32;2.78;;;15.00;92.10;;;;;;5041402;28;20171;-82
2022/04/26 13:59:09;;;;;;;4.78;2.55;;;14.80;93.30;;;;;;5042804;28;20324;-82
2022/04/26 14:01:34;;;;;;;9.05;3.00;;;14.30;93.40;;;;;;5042693;28;20302;-82
2022/04/26 14:04:00;;;;;;;5.43;2.83;;;13.80;93.80;;;;;;5039341;28;20045;-84
2022/04/26 14:06:26;;;;;;;9.18;3.25;;;13.70;94.70;;;;;;5039431;28;20041;-82
2022/04/26 14:08:52;;;;;;;6.85;2.65;;;13.60;94.40;;;;;;5043382;28;20045;-83
2022/04/26 14:11:18;;;;;;;5.30;2.67;;;13.70;95.20;;;;;;5040823;28;20044;-83
2022/04/26 14:21:57;;;;;;;5.18;2.78;;;16.50;93.00;;;;;;5028843;28;20038;-84
2022/04/26 14:24:23;;;;;;;5.82;2.80;;;16.30;93.10;;;;;;5010348;28;20046;-84
2022/04/26 14:26:49;;;;;;;5.00;2.47;;;15.70;92.00;;;;;;4996522;28;20052;-85
2022/04/26 14:29:18;;;;;;;6.75;2.70;;;15.40;92.10;;;;;;5025319;28;20041;-84
2022/04/26 14:31:43;;;;;;;5.82;2.63;;;15.70;92.40;;;;;;5014915;28;20081;-84
2022/04/26 14:34:10;;;;;;;5.00;2.70;;;16.00;92.70;;;;;;5046198;28;20073;-85
2022/04/26 14:36:36;;;;;;;8.55;3.10;;;15.90;92.40;;;;;;5048377;28;20407;-84
2022/04/26 14:39:03;;;;;;;9.73;2.90;;;15.70;92.30;;;;;;5012816;28;20029;-85
2022/04/26 14:41:28;;;;;;;7.00;2.78;;;15.90;92.40;;;;;;5031664;28;20125;-85
2022/04/26 14:43:54;;;;;;;4.20;2.17;;;15.80;93.10;;;;;;5046262;28;20173;-85
2022/04/26 14:46:19;;;;;;;5.05;2.50;;;15.60;91.80;;;;;;5030589;28;20033;-84
2022/04/26 14:48:45;;;;;;;4.63;2.60;;;15.50;91.90;;;;;;5030043;28;20037;-84
2022/04/26 14:51:11;;;;;;;6.55;2.67;;;15.60;92.10;;;;;;5027640;28;20045;-85
2022/04/26 14:53:38;;;;;;;4.25;2.22;;;15.00;92.60;;;;;;5030428;28;20052;-85
2022/04/26 14:56:05;;;;;;;9.70;2.70;;;14.90;93.00;;;;;;5030794;28;20499;-84
2022/04/26 14:58:31;;;;;;;5.80;2.58;;;15.10;92.60;;;;;;5030460;28;20037;-85
2022/04/26 15:00:57;;;;;;;5.32;2.40;;;15.50;92.40;;;;;;5030204;28;20404;-86
2022/04/26 15:03:23;;;;;;;5.93;2.50;;;15.90;92.30;;;;;;5030197;28;20503;-85
2022/04/26 15:05:49;;;;;;;4.82;2.25;;;16.30;91.60;;;;;;5013217;28;20034;-87
2022/04/26 15:10:58;;;;;;;5.38;2.42;;;16.30;89.00;;;;;;5031398;28;20585;-86
2022/04/26 15:18:52;;;;;;;;;;;14.70;90.90;;;;;;5031490;28;20144;-84
2022/04/26 15:21:18;;;;;;;5.40;2.40;;;14.50;91.10;;;;;;5014576;28;20383;-85
2022/04/26 15:23:44;;;;;;;6.65;2.67;;;15.00;91.50;;;;;;5047056;28;20525;-85
2022/04/26 15:26:11;;;;;;;3.80;2.53;;;15.70;91.30;;;;;;5047542;28;20042;-86
2022/04/26 15:28:38;;;;;;;4.30;2.33;;;16.30;91.00;;;;;;5047104;28;20080;-85
2022/04/26 15:31:04;;;;;;;4.97;2.60;;;17.20;88.40;;;;;;5046988;28;20099;-85
2022/04/26 15:33:30;;;;;;;4.53;2.40;;;17.20;86.20;;;;;;5046904;28;20052;-86
2022/04/26 15:35:57;;;;;;;6.70;2.60;;;17.60;88.00;;;;;;5013856;28;20063;-86
2022/04/26 15:38:27;;;;;;;6.30;2.53;;;17.60;86.70;;;;;;5029358;28;20075;-86
2022/04/26 15:40:53;;;;;;;6.07;2.80;;;18.30;87.40;;;;;;5029369;28;20037;-86
2022/04/26 15:43:19;;;;;;;5.38;2.45;;;18.70;85.00;;;;;;5046678;28;20062;-85
2022/04/26 15:45:45;;;;;;;4.28;2.30;;;18.60;83.90;;;;;;5029678;28;20046;-86
2022/04/26 15:48:11;;;;;;;5.07;2.60;;;17.90;83.50;;;;;;5046680;28;20049;-86
2022/04/26 15:50:41;;;;;;;5.10;2.20;;;18.10;83.90;;;;;;5030188;28;20038;-85
2022/04/26 15:53:08;;;;;;;3.88;2.40;;;18.50;83.60;;;;;;5030573;28;20045;-85
2022/04/26 15:55:34;;;;;;;4.25;2.40;;;18.10;82.80;;;;;;5030353;28;20399;-85
2022/04/26 15:58:00;;;;;;;6.10;2.50;;;18.20;81.00;;;;;;5047016;28;20087;-85
2022/04/26 16:00:26;;;;;;;4.53;2.42;;;17.30;81.00;;;;;;5034313;28;20034;-85
2022/04/26 16:02:53;;;;;;;7.30;2.20;;;17.00;83.90;;;;;;5052461;28;20124;-84
2022/04/26 16:05:19;;;;;;;5.85;2.42;;;16.60;84.40;;;;;;5052495;28;20045;-83
2022/04/26 16:07:45;;;;;;;5.28;2.60;;;16.50;84.00;;;;;;5053134;28;20034;-83
2022/04/26 16:21:08;;;;;;;7.25;2.70;;;15.60;86.00;;;;;;5036541;28;20046;-82
2022/04/26 16:23:34;;;;;;;6.45;2.67;;;15.30;86.10;;;;;;5023616;28;20037;-82
2022/04/26 16:26:02;;;;;;;6.32;2.60;;;15.70;87.50;;;;;;5038993;28;20038;-82
2022/04/26 16:28:34;;;;;;;5.60;2.60;;;15.20;87.70;;;;;;5039920;28;20049;-82
2022/04/26 16:31:00;;;;;;;7.68;3.20;;;15.40;88.60;;;;;;5022208;28;20030;-80
2022/04/26 16:33:26;;;;;;;4.10;2.55;;;15.00;88.60;;;;;;5037695;28;20421;-81
2022/04/26 16:35:52;;;;;;;6.20;2.60;;;14.90;89.90;;;;;;5038037;28;20045;-81
2022/04/26 16:38:18;;;;;;;5.72;3.05;;;15.50;90.10;;;;;;5022638;28;20045;-80
2022/04/26 16:40:47;;;;;;;8.57;3.00;;;16.50;90.00;;;;;;5043184;28;20087;-81
2022/04/26 16:43:17;;;;;;;9.40;2.97;;;16.90;88.90;;;;;;5038467;28;20037;-80
2022/04/26 16:45:44;;;;;;;5.95;2.80;;;16.40;85.60;;;;;;5033520;28;20033;-80
2022/04/26 16:48:09;;;;;;;7.15;2.80;;;15.50;87.40;;;;;;5029879;28;20400;-80
2022/04/26 16:50:35;;;;;;;5.35;2.70;;;15.30;88.10;;;;;;5031179;28;20029;-80
2022/04/26 16:53:00;;;;;;;5.32;2.72;;;14.80;88.30;;;;;;5030235;28;20083;-80
2022/04/26 16:55:27;;;;;;;5.65;2.90;;;14.00;90.00;;;;;;5029058;28;20041;-80
2022/04/26 16:57:53;;;;;;;4.93;2.80;;;13.50;90.30;;;;;;5028931;28;20089;-80
2022/04/26 17:00:19;;;;;;;29.10;3.88;;;13.10;90.80;;;;;;5028648;28;20040;-80
2022/04/26 17:02:44;;;;;;;7.57;2.90;;;13.10;91.00;;;;;;5030385;28;20037;-80
2022/04/26 17:05:12;;;;;;;7.00;2.50;;;13.00;91.40;;;;;;5031098;28;20051;-80
2022/04/26 17:07:39;;;;;;;4.72;2.33;;;12.70;91.40;;;;;;5045799;28;20091;-79
2022/04/26 17:10:05;;;;;;;4.28;2.50;;;12.90;91.60;;;;;;5045590;28;20076;-80
2022/04/26 17:12:30;;;;;;;9.25;2.97;;;12.90;91.60;;;;;;5029365;28;20041;-80
2022/04/26 17:14:56;;;;;;;8.52;2.60;;;12.80;91.70;;;;;;5028949;28;20088;-81
2022/04/26 17:17:22;;;;;;;6.47;2.75;;;12.70;92.00;;;;;;5027732;28;20046;-80
2022/04/26 17:19:48;;;;;;;5.35;2.50;;;12.60;92.10;;;;;;5030234;28;20061;-79
2022/04/26 17:22:14;;;;;;;5.57;2.55;;;12.50;92.30;;;;;;5030212;28;20095;-80
2022/04/26 17:27:23;;;;;;;8.88;2.90;;;12.30;92.90;;;;;;5028991;28;20049;-80